PWSweather.com
Personal Weather Stations
Station Observations
METEOC500
Santo Antonio, FunchalPT 2020

Santo AntonioFunchalPT 2020

Lat: 32.678227, Lon: -16.945054

Elevation: 1669.94751

Station Type: WH Series

High Low Average
Temperature 71.1°F21.7°C 61.2°F16.2°C 64.6°F18.1°C
Dew Point 61.5°F16.4°C 52.9°F11.6°C 56.6°F13.7°C
Winds 9.6 mph 15.4 kmh Calm Calm 4.0 mph WSW6.4 kmh WSW
Wind Gusts 15.0 mph24.1 kmh 2.5 mph4.0 kmh 9.0 mph14.5 kmh
Humidity 86% 62% 76%
Pressure 30.26 in1024.7 mb 30.16 in1021.3 mb -
Precipitation 0.00 in0.0 mm - -
Hour Temp Dew Point Humidity Winds Wind Gusts Pressure Precip Precip Rate Daily Precip Total
12:05 AM 62.2°F16.8°C 54.5°F12.5°C 76% 5.4 mph N8.7 kmh N 10.1 mph16.3 kmh 30.24 in1024.0 mb 0.00 in0.0 mm 0.00 in0.0 mm 0.00 in0.0 mm
12:20 AM 62.1°F16.7°C 54.7°F12.6°C 77% 5.6 mph NNW9.0 kmh NNW 10.1 mph16.3 kmh 30.25 in1024.4 mb 0.00 in0.0 mm 0.00 in0.0 mm 0.00 in0.0 mm
12:35 AM 61.7°F16.5°C 54.5°F12.5°C 77% 5.4 mph NNW8.7 kmh NNW 10.1 mph16.3 kmh 30.24 in1024.0 mb 0.00 in0.0 mm 0.00 in0.0 mm 0.00 in0.0 mm
12:50 AM 61.7°F16.5°C 54.5°F12.5°C 77% 7.2 mph NNW11.6 kmh NNW 10.1 mph16.3 kmh 30.24 in1024.0 mb 0.00 in0.0 mm 0.00 in0.0 mm 0.00 in0.0 mm
01:05 AM 61.7°F16.5°C 54.9°F12.7°C 78% 8.1 mph NNW13.0 kmh NNW 12.5 mph20.1 kmh 30.25 in1024.4 mb 0.00 in0.0 mm 0.00 in0.0 mm 0.00 in0.0 mm
01:21 AM 61.3°F16.3°C 54.5°F12.5°C 78% 6.0 mph NNW9.7 kmh NNW 12.5 mph20.1 kmh 30.24 in1024.0 mb 0.00 in0.0 mm 0.00 in0.0 mm 0.00 in0.0 mm
01:36 AM 61.2°F16.2°C 54.9°F12.7°C 80% 7.6 mph NNW12.2 kmh NNW 10.1 mph16.3 kmh 30.24 in1024.0 mb 0.00 in0.0 mm 0.00 in0.0 mm 0.00 in0.0 mm
01:51 AM 61.2°F16.2°C 54.9°F12.7°C 80% 8.5 mph NNW13.7 kmh NNW 12.5 mph20.1 kmh 30.23 in1023.7 mb 0.00 in0.0 mm 0.00 in0.0 mm 0.00 in0.0 mm
02:06 AM 61.3°F16.3°C 54.9°F12.7°C 79% 9.6 mph NNW15.4 kmh NNW 12.5 mph20.1 kmh 30.22 in1023.4 mb 0.00 in0.0 mm 0.00 in0.0 mm 0.00 in0.0 mm
02:21 AM 61.5°F16.4°C 54.3°F12.4°C 77% 8.5 mph NNW13.7 kmh NNW 12.5 mph20.1 kmh 30.23 in1023.7 mb 0.00 in0.0 mm 0.00 in0.0 mm 0.00 in0.0 mm
02:36 AM 61.7°F16.5°C 54.5°F12.5°C 77% 7.8 mph NW12.6 kmh NW 12.5 mph20.1 kmh 30.22 in1023.4 mb 0.00 in0.0 mm 0.00 in0.0 mm 0.00 in0.0 mm
02:51 AM 61.5°F16.4°C 54.0°F12.2°C 76% 7.6 mph NNW12.2 kmh NNW 12.5 mph20.1 kmh 30.22 in1023.4 mb 0.00 in0.0 mm 0.00 in0.0 mm 0.00 in0.0 mm
03:06 AM 61.5°F16.4°C 53.6°F12.0°C 75% 6.0 mph NW9.7 kmh NW 10.1 mph16.3 kmh 30.22 in1023.4 mb 0.00 in0.0 mm 0.00 in0.0 mm 0.00 in0.0 mm
03:21 AM 61.7°F16.5°C 54.1°F12.3°C 76% 4.5 mph N7.2 kmh N 10.1 mph16.3 kmh 30.22 in1023.4 mb 0.00 in0.0 mm 0.00 in0.0 mm 0.00 in0.0 mm
03:36 AM 61.9°F16.6°C 53.8°F12.1°C 75% 5.6 mph N9.0 kmh N 10.1 mph16.3 kmh 30.21 in1023.0 mb 0.00 in0.0 mm 0.00 in0.0 mm 0.00 in0.0 mm
03:51 AM 61.9°F16.6°C 54.7°F12.6°C 77% 4.7 mph NNW7.6 kmh NNW 7.6 mph12.2 kmh 30.21 in1023.0 mb 0.00 in0.0 mm 0.00 in0.0 mm 0.00 in0.0 mm
04:06 AM 61.3°F16.3°C 54.1°F12.3°C 77% 6.3 mph NNW10.1 kmh NNW 10.1 mph16.3 kmh 30.21 in1023.0 mb 0.00 in0.0 mm 0.00 in0.0 mm 0.00 in0.0 mm
04:21 AM 61.2°F16.2°C 54.0°F12.2°C 77% 5.4 mph NNW8.7 kmh NNW 10.1 mph16.3 kmh 30.22 in1023.4 mb 0.00 in0.0 mm 0.00 in0.0 mm 0.00 in0.0 mm
04:36 AM 61.2°F16.2°C 54.3°F12.4°C 78% 6.0 mph NNW9.7 kmh NNW 10.1 mph16.3 kmh 30.21 in1023.0 mb 0.00 in0.0 mm 0.00 in0.0 mm 0.00 in0.0 mm
04:51 AM 61.2°F16.2°C 54.0°F12.2°C 77% 4.0 mph NNW6.4 kmh NNW 7.6 mph12.2 kmh 30.21 in1023.0 mb 0.00 in0.0 mm 0.00 in0.0 mm 0.00 in0.0 mm
05:06 AM 61.5°F16.4°C 54.3°F12.4°C 77% 5.4 mph NNW8.7 kmh NNW 7.6 mph12.2 kmh 30.21 in1023.0 mb 0.00 in0.0 mm 0.00 in0.0 mm 0.00 in0.0 mm
05:21 AM 61.7°F16.5°C 54.9°F12.7°C 78% 4.7 mph NNW7.6 kmh NNW 7.6 mph12.2 kmh 30.21 in1023.0 mb 0.00 in0.0 mm 0.00 in0.0 mm 0.00 in0.0 mm
05:36 AM 61.5°F16.4°C 54.0°F12.2°C 76% 6.3 mph NNW10.1 kmh NNW 7.6 mph12.2 kmh 30.21 in1023.0 mb 0.00 in0.0 mm 0.00 in0.0 mm 0.00 in0.0 mm
05:51 AM 61.5°F16.4°C 54.3°F12.4°C 77% 4.5 mph N7.2 kmh N 7.6 mph12.2 kmh 30.21 in1023.0 mb 0.00 in0.0 mm 0.00 in0.0 mm 0.00 in0.0 mm
06:06 AM 61.7°F16.5°C 54.1°F12.3°C 76% 6.3 mph NNW10.1 kmh NNW 7.6 mph12.2 kmh 30.21 in1023.0 mb 0.00 in0.0 mm 0.00 in0.0 mm 0.00 in0.0 mm
06:21 AM 61.7°F16.5°C 54.5°F12.5°C 77% 4.9 mph N7.9 kmh N 10.1 mph16.3 kmh 30.21 in1023.0 mb 0.00 in0.0 mm 0.00 in0.0 mm 0.00 in0.0 mm
06:36 AM 61.7°F16.5°C 54.5°F12.5°C 77% 5.6 mph NNW9.0 kmh NNW 10.1 mph16.3 kmh 30.21 in1023.0 mb 0.00 in0.0 mm 0.00 in0.0 mm 0.00 in0.0 mm
06:51 AM 61.9°F16.6°C 54.7°F12.6°C 77% 4.9 mph NNW7.9 kmh NNW 7.6 mph12.2 kmh 30.22 in1023.4 mb 0.00 in0.0 mm 0.00 in0.0 mm 0.00 in0.0 mm
07:07 AM 62.1°F16.7°C 55.0°F12.8°C 78% 2.5 mph NNW4.0 kmh NNW 7.6 mph12.2 kmh 30.22 in1023.4 mb 0.00 in0.0 mm 0.00 in0.0 mm 0.00 in0.0 mm
07:22 AM 62.1°F16.7°C 55.4°F13.0°C 79% 3.1 mph NNW5.0 kmh NNW 4.9 mph7.9 kmh 30.22 in1023.4 mb 0.00 in0.0 mm 0.00 in0.0 mm 0.00 in0.0 mm
07:37 AM 62.1°F16.7°C 55.0°F12.8°C 78% 3.8 mph NNW6.1 kmh NNW 7.6 mph12.2 kmh 30.22 in1023.4 mb 0.00 in0.0 mm 0.00 in0.0 mm 0.00 in0.0 mm
07:52 AM 62.4°F16.9°C 55.0°F12.8°C 77% 2.9 mph NNW4.7 kmh NNW 7.6 mph12.2 kmh 30.22 in1023.4 mb 0.00 in0.0 mm 0.00 in0.0 mm 0.00 in0.0 mm
08:07 AM 63.0°F17.2°C 55.6°F13.1°C 77% 3.4 mph N5.5 kmh N 7.6 mph12.2 kmh 30.23 in1023.7 mb 0.00 in0.0 mm 0.00 in0.0 mm 0.00 in0.0 mm
08:22 AM 63.7°F17.6°C 56.3°F13.5°C 77% 2.5 mph N4.0 kmh N 4.9 mph7.9 kmh 30.23 in1023.7 mb 0.00 in0.0 mm 0.00 in0.0 mm 0.00 in0.0 mm
08:37 AM 64.0°F17.8°C 56.7°F13.7°C 77% 1.3 mph N2.1 kmh N 4.9 mph7.9 kmh 30.24 in1024.0 mb 0.00 in0.0 mm 0.00 in0.0 mm 0.00 in0.0 mm
08:52 AM 64.6°F18.1°C 55.0°F12.8°C 71% Calm Calm 2.5 mph4.0 kmh 30.24 in1024.0 mb 0.00 in0.0 mm 0.00 in0.0 mm 0.00 in0.0 mm
09:07 AM 66.0°F18.9°C 55.9°F13.3°C 70% 2.2 mph SE3.5 kmh SE 2.5 mph4.0 kmh 30.25 in1024.4 mb 0.00 in0.0 mm 0.00 in0.0 mm 0.00 in0.0 mm
09:22 AM 66.6°F19.2°C 56.8°F13.8°C 71% 0.2 mph S0.3 kmh S 4.9 mph7.9 kmh 30.25 in1024.4 mb 0.00 in0.0 mm 0.00 in0.0 mm 0.00 in0.0 mm
09:37 AM 66.4°F19.1°C 57.4°F14.1°C 73% 4.0 mph SSE6.4 kmh SSE 7.6 mph12.2 kmh 30.25 in1024.4 mb 0.00 in0.0 mm 0.00 in0.0 mm 0.00 in0.0 mm
09:52 AM 66.6°F19.2°C 57.6°F14.2°C 73% Calm Calm 4.9 mph7.9 kmh 30.25 in1024.4 mb 0.00 in0.0 mm 0.00 in0.0 mm 0.00 in0.0 mm
10:07 AM 66.7°F19.3°C 57.0°F13.9°C 71% 1.3 mph SSE2.1 kmh SSE 4.9 mph7.9 kmh 30.25 in1024.4 mb 0.00 in0.0 mm 0.00 in0.0 mm 0.00 in0.0 mm
10:22 AM 67.1°F19.5°C 57.7°F14.3°C 72% Calm Calm 7.6 mph12.2 kmh 30.26 in1024.7 mb 0.00 in0.0 mm 0.00 in0.0 mm 0.00 in0.0 mm
10:37 AM 66.9°F19.4°C 57.2°F14.0°C 71% Calm Calm 4.9 mph7.9 kmh 30.26 in1024.7 mb 0.00 in0.0 mm 0.00 in0.0 mm 0.00 in0.0 mm
10:52 AM 66.7°F19.3°C 57.0°F13.9°C 71% 0.2 mph NNE0.3 kmh NNE 4.9 mph7.9 kmh 30.26 in1024.7 mb 0.00 in0.0 mm 0.00 in0.0 mm 0.00 in0.0 mm
11:07 AM 66.9°F19.4°C 57.2°F14.0°C 71% 0.7 mph S1.1 kmh S 4.9 mph7.9 kmh 30.25 in1024.4 mb 0.00 in0.0 mm 0.00 in0.0 mm 0.00 in0.0 mm
11:22 AM 67.8°F19.9°C 55.6°F13.1°C 65% 1.6 mph SW2.6 kmh SW 7.6 mph12.2 kmh 30.24 in1024.0 mb 0.00 in0.0 mm 0.00 in0.0 mm 0.00 in0.0 mm
11:37 AM 70.2°F21.2°C 58.3°F14.6°C 66% 3.4 mph SE5.5 kmh SE 12.5 mph20.1 kmh 30.24 in1024.0 mb 0.00 in0.0 mm 0.00 in0.0 mm 0.00 in0.0 mm
11:52 AM 70.9°F21.6°C 57.2°F14.0°C 62% 3.1 mph ESE5.0 kmh ESE 10.1 mph16.3 kmh 30.23 in1023.7 mb 0.00 in0.0 mm 0.00 in0.0 mm 0.00 in0.0 mm
12:07 PM 70.7°F21.5°C 57.9°F14.4°C 64% 3.8 mph SSW6.1 kmh SSW 12.5 mph20.1 kmh 30.23 in1023.7 mb 0.00 in0.0 mm 0.00 in0.0 mm 0.00 in0.0 mm
12:22 PM 70.7°F21.5°C 58.3°F14.6°C 65% 5.4 mph SE8.7 kmh SE 10.1 mph16.3 kmh 30.22 in1023.4 mb 0.00 in0.0 mm 0.00 in0.0 mm 0.00 in0.0 mm
12:38 PM 70.0°F21.1°C 58.5°F14.7°C 67% 6.3 mph SE10.1 kmh SE 10.1 mph16.3 kmh 30.22 in1023.4 mb 0.00 in0.0 mm 0.00 in0.0 mm 0.00 in0.0 mm
12:53 PM 69.4°F20.8°C 57.9°F14.4°C 67% 1.8 mph SSE2.9 kmh SSE 12.5 mph20.1 kmh 30.22 in1023.4 mb 0.00 in0.0 mm 0.00 in0.0 mm 0.00 in0.0 mm
01:08 PM 69.8°F21.0°C 57.0°F13.9°C 64% 6.3 mph S10.1 kmh S 12.5 mph20.1 kmh 30.21 in1023.0 mb 0.00 in0.0 mm 0.00 in0.0 mm 0.00 in0.0 mm
01:23 PM 70.3°F21.3°C 58.1°F14.5°C 65% 2.5 mph SSW4.0 kmh SSW 10.1 mph16.3 kmh 30.21 in1023.0 mb 0.00 in0.0 mm 0.00 in0.0 mm 0.00 in0.0 mm
01:38 PM 70.2°F21.2°C 58.6°F14.8°C 67% 1.6 mph S2.6 kmh S 12.5 mph20.1 kmh 30.21 in1023.0 mb 0.00 in0.0 mm 0.00 in0.0 mm 0.00 in0.0 mm
01:53 PM 69.8°F21.0°C 57.0°F13.9°C 64% 5.4 mph S8.7 kmh S 10.1 mph16.3 kmh 30.19 in1022.4 mb 0.00 in0.0 mm 0.00 in0.0 mm 0.00 in0.0 mm
02:08 PM 70.3°F21.3°C 59.4°F15.2°C 68% 7.8 mph SE12.6 kmh SE 12.5 mph20.1 kmh 30.19 in1022.4 mb 0.00 in0.0 mm 0.00 in0.0 mm 0.00 in0.0 mm
02:23 PM 71.1°F21.7°C 59.5°F15.3°C 67% 7.6 mph S12.2 kmh S 15.0 mph24.1 kmh 30.19 in1022.4 mb 0.00 in0.0 mm 0.00 in0.0 mm 0.00 in0.0 mm
02:38 PM 71.1°F21.7°C 61.5°F16.4°C 72% 4.5 mph ESE7.2 kmh ESE 10.1 mph16.3 kmh 30.19 in1022.4 mb 0.00 in0.0 mm 0.00 in0.0 mm 0.00 in0.0 mm
02:53 PM 70.0°F21.1°C 61.0°F16.1°C 73% 6.3 mph SSE10.1 kmh SSE 12.5 mph20.1 kmh 30.19 in1022.4 mb 0.00 in0.0 mm 0.00 in0.0 mm 0.00 in0.0 mm
03:08 PM 68.5°F20.3°C 60.3°F15.7°C 75% 3.4 mph S5.5 kmh S 10.1 mph16.3 kmh 30.18 in1022.0 mb 0.00 in0.0 mm 0.00 in0.0 mm 0.00 in0.0 mm
03:23 PM 67.6°F19.8°C 59.7°F15.4°C 76% 4.7 mph SSE7.6 kmh SSE 12.5 mph20.1 kmh 30.18 in1022.0 mb 0.00 in0.0 mm 0.00 in0.0 mm 0.00 in0.0 mm
03:38 PM 67.5°F19.7°C 59.2°F15.1°C 75% 2.5 mph SE4.0 kmh SE 10.1 mph16.3 kmh 30.17 in1021.7 mb 0.00 in0.0 mm 0.00 in0.0 mm 0.00 in0.0 mm
03:53 PM 67.6°F19.8°C 60.6°F15.9°C 78% 5.4 mph SE8.7 kmh SE 10.1 mph16.3 kmh 30.18 in1022.0 mb 0.00 in0.0 mm 0.00 in0.0 mm 0.00 in0.0 mm
04:08 PM 67.3°F19.6°C 59.9°F15.5°C 77% 4.5 mph SSE7.2 kmh SSE 7.6 mph12.2 kmh 30.17 in1021.7 mb 0.00 in0.0 mm 0.00 in0.0 mm 0.00 in0.0 mm
04:23 PM 67.1°F19.5°C 60.1°F15.6°C 78% 1.3 mph SE2.1 kmh SE 7.6 mph12.2 kmh 30.17 in1021.7 mb 0.00 in0.0 mm 0.00 in0.0 mm 0.00 in0.0 mm
04:38 PM 67.1°F19.5°C 60.8°F16.0°C 80% 0.9 mph S1.4 kmh S 10.1 mph16.3 kmh 30.16 in1021.3 mb 0.00 in0.0 mm 0.00 in0.0 mm 0.00 in0.0 mm
04:53 PM 66.9°F19.4°C 61.0°F16.1°C 81% 3.8 mph SSE6.1 kmh SSE 7.6 mph12.2 kmh 30.17 in1021.7 mb 0.00 in0.0 mm 0.00 in0.0 mm 0.00 in0.0 mm
05:08 PM 66.4°F19.1°C 60.4°F15.8°C 81% 6.3 mph SSE10.1 kmh SSE 7.6 mph12.2 kmh 30.17 in1021.7 mb 0.00 in0.0 mm 0.00 in0.0 mm 0.00 in0.0 mm
05:23 PM 65.8°F18.8°C 60.3°F15.7°C 82% Calm Calm 7.6 mph12.2 kmh 30.17 in1021.7 mb 0.00 in0.0 mm 0.00 in0.0 mm 0.00 in0.0 mm
05:38 PM 65.7°F18.7°C 59.7°F15.4°C 81% 1.6 mph SE2.6 kmh SE 7.6 mph12.2 kmh 30.17 in1021.7 mb 0.00 in0.0 mm 0.00 in0.0 mm 0.00 in0.0 mm
05:53 PM 65.7°F18.7°C 60.1°F15.6°C 82% 1.6 mph S2.6 kmh S 4.9 mph7.9 kmh 30.17 in1021.7 mb 0.00 in0.0 mm 0.00 in0.0 mm 0.00 in0.0 mm
06:08 PM 65.7°F18.7°C 60.1°F15.6°C 82% 0.2 mph ESE0.3 kmh ESE 4.9 mph7.9 kmh 30.18 in1022.0 mb 0.00 in0.0 mm 0.00 in0.0 mm 0.00 in0.0 mm
06:24 PM 65.5°F18.6°C 59.9°F15.5°C 82% Calm Calm 4.9 mph7.9 kmh 30.18 in1022.0 mb 0.00 in0.0 mm 0.00 in0.0 mm 0.00 in0.0 mm
06:39 PM 65.3°F18.5°C 60.1°F15.6°C 83% Calm Calm 4.9 mph7.9 kmh 30.18 in1022.0 mb 0.00 in0.0 mm 0.00 in0.0 mm 0.00 in0.0 mm
06:54 PM 65.3°F18.5°C 60.1°F15.6°C 83% 0.7 mph S1.1 kmh S 2.5 mph4.0 kmh 30.18 in1022.0 mb 0.00 in0.0 mm 0.00 in0.0 mm 0.00 in0.0 mm
07:09 PM 64.9°F18.3°C 59.9°F15.5°C 84% Calm Calm 2.5 mph4.0 kmh 30.18 in1022.0 mb 0.00 in0.0 mm 0.00 in0.0 mm 0.00 in0.0 mm
07:24 PM 64.6°F18.1°C 59.9°F15.5°C 85% Calm Calm 2.5 mph4.0 kmh 30.19 in1022.4 mb 0.00 in0.0 mm 0.00 in0.0 mm 0.00 in0.0 mm
07:39 PM 64.0°F17.8°C 59.7°F15.4°C 86% 1.3 mph NNW2.1 kmh NNW 2.5 mph4.0 kmh 30.19 in1022.4 mb 0.00 in0.0 mm 0.00 in0.0 mm 0.00 in0.0 mm
07:54 PM 63.7°F17.6°C 59.4°F15.2°C 86% 2.5 mph NW4.0 kmh NW 4.9 mph7.9 kmh 30.19 in1022.4 mb 0.00 in0.0 mm 0.00 in0.0 mm 0.00 in0.0 mm
08:09 PM 63.3°F17.4°C 59.0°F15.0°C 86% 2.9 mph NNW4.7 kmh NNW 4.9 mph7.9 kmh 30.20 in1022.7 mb 0.00 in0.0 mm 0.00 in0.0 mm 0.00 in0.0 mm
08:24 PM 63.1°F17.3°C 57.6°F14.2°C 82% 4.5 mph NW7.2 kmh NW 10.1 mph16.3 kmh 30.20 in1022.7 mb 0.00 in0.0 mm 0.00 in0.0 mm 0.00 in0.0 mm
08:39 PM 63.0°F17.2°C 57.7°F14.3°C 83% 4.5 mph NNW7.2 kmh NNW 10.1 mph16.3 kmh 30.20 in1022.7 mb 0.00 in0.0 mm 0.00 in0.0 mm 0.00 in0.0 mm
08:54 PM 62.4°F16.9°C 56.1°F13.4°C 80% 5.6 mph NNW9.0 kmh NNW 12.5 mph20.1 kmh 30.22 in1023.4 mb 0.00 in0.0 mm 0.00 in0.0 mm 0.00 in0.0 mm
09:09 PM 62.1°F16.7°C 54.3°F12.4°C 76% 6.3 mph N10.1 kmh N 10.1 mph16.3 kmh 30.22 in1023.4 mb 0.00 in0.0 mm 0.00 in0.0 mm 0.00 in0.0 mm
09:24 PM 62.1°F16.7°C 54.0°F12.2°C 75% 7.6 mph N12.2 kmh N 10.1 mph16.3 kmh 30.23 in1023.7 mb 0.00 in0.0 mm 0.00 in0.0 mm 0.00 in0.0 mm
09:39 PM 62.1°F16.7°C 53.6°F12.0°C 74% 5.4 mph NNW8.7 kmh NNW 12.5 mph20.1 kmh 30.23 in1023.7 mb 0.00 in0.0 mm 0.00 in0.0 mm 0.00 in0.0 mm
09:54 PM 62.1°F16.7°C 54.0°F12.2°C 75% 7.2 mph N11.6 kmh N 10.1 mph16.3 kmh 30.23 in1023.7 mb 0.00 in0.0 mm 0.00 in0.0 mm 0.00 in0.0 mm
10:09 PM 62.1°F16.7°C 54.0°F12.2°C 75% 6.0 mph NW9.7 kmh NW 10.1 mph16.3 kmh 30.22 in1023.4 mb 0.00 in0.0 mm 0.00 in0.0 mm 0.00 in0.0 mm
10:24 PM 61.9°F16.6°C 53.1°F11.7°C 73% 7.8 mph NNW12.6 kmh NNW 12.5 mph20.1 kmh 30.23 in1023.7 mb 0.00 in0.0 mm 0.00 in0.0 mm 0.00 in0.0 mm
10:39 PM 62.1°F16.7°C 52.9°F11.6°C 72% 7.2 mph N11.6 kmh N 12.5 mph20.1 kmh 30.23 in1023.7 mb 0.00 in0.0 mm 0.00 in0.0 mm 0.00 in0.0 mm
10:54 PM 62.4°F16.9°C 54.0°F12.2°C 74% 4.7 mph NNW7.6 kmh NNW 10.1 mph16.3 kmh 30.23 in1023.7 mb 0.00 in0.0 mm 0.00 in0.0 mm 0.00 in0.0 mm
11:09 PM 62.1°F16.7°C 53.2°F11.8°C 73% 3.1 mph N5.0 kmh N 7.6 mph12.2 kmh 30.22 in1023.4 mb 0.00 in0.0 mm 0.00 in0.0 mm 0.00 in0.0 mm
11:24 PM 61.7°F16.5°C 54.1°F12.3°C 76% 4.9 mph NNW7.9 kmh NNW 10.1 mph16.3 kmh 30.23 in1023.7 mb 0.00 in0.0 mm 0.00 in0.0 mm 0.00 in0.0 mm
11:39 PM 62.2°F16.8°C 53.1°F11.7°C 72% 3.1 mph NNW5.0 kmh NNW 7.6 mph12.2 kmh 30.23 in1023.7 mb 0.00 in0.0 mm 0.00 in0.0 mm 0.00 in0.0 mm
11:55 PM 62.6°F17.0°C 54.5°F12.5°C 75% 4.5 mph NNW7.2 kmh NNW 7.6 mph12.2 kmh 30.22 in1023.4 mb 0.00 in0.0 mm 0.00 in0.0 mm 0.00 in0.0 mm